Time;durP1;ratioP1;P1;durP2;ratioP2;P2;SDS_P1;SDS_P2;PMS_P1;PMS_P2;Temp;Humidity;BMP_temperature;BMP_pressure;BME280_temperature;BME280_humidity;BME280_pressure;Samples;Min_cycle;Max_cycle;Signal;HPM_P1;HPM_P2
2023/04/05 00:01:39;;;;;;;0.63;0.63;;;;;;;;;;10344666;28;20701;-74
2023/04/05 00:06:42;;;;;;;1.15;0.85;;;;;;;;;;10365474;28;20226;-73
2023/04/05 00:11:43;;;;;;;0.77;0.77;;;;;;;;;;10359075;28;20242;-72
2023/04/05 00:16:44;;;;;;;0.50;0.50;;;;;;;;;;10361906;28;20314;-74
2023/04/05 00:21:46;;;;;;;1.92;1.00;;;;;;;;;;10348660;28;20235;-74
2023/04/05 00:26:47;;;;;;;2.65;1.27;;;;;;;;;;10359875;28;20216;-74
2023/04/05 00:31:48;;;;;;;1.00;0.60;;;;;;;;;;10346094;28;20254;-74
2023/04/05 00:36:49;;;;;;;7.88;1.08;;;;;;;;;;10353067;28;20756;-73
2023/04/05 00:41:50;;;;;;;3.05;0.70;;;;;;;;;;10349209;28;20725;-71
2023/04/05 00:46:51;;;;;;;0.68;0.68;;;;;;;;;;10331700;28;20235;-72
2023/04/05 00:51:53;;;;;;;0.70;0.70;;;;;;;;;;10336013;28;20230;-73
2023/04/05 00:57:01;;;;;;;0.60;0.60;;;;;;;;;;10355040;28;20310;-73
2023/04/05 01:02:06;;;;;;;0.88;0.88;;;;;;;;;;10344572;28;20710;-73
2023/04/05 01:07:08;;;;;;;1.85;0.80;;;;;;;;;;10360295;28;20228;-74
2023/04/05 01:12:11;;;;;;;0.55;0.55;;;;;;;;;;10348558;28;20227;-73
2023/04/05 01:17:13;;;;;;;1.20;0.75;;;;;;;;;;10367446;28;20250;-73
2023/04/05 01:22:50;;;;;;;0.77;0.77;;;;;;;;;;10353736;28;20274;-75
2023/04/05 01:27:57;;;;;;;0.85;0.85;;;;;;;;;;10281924;28;20317;-72
2023/04/05 01:33:16;;;;;;;2.60;0.85;;;;;;;;;;10350171;28;20231;-74
2023/04/05 01:38:18;;;;;;;0.60;0.60;;;;;;;;;;10340104;28;22296;-74
2023/04/05 01:43:19;;;;;;;0.63;0.63;;;;;;;;;;10373947;28;20215;-74
2023/04/05 01:48:20;;;;;;;0.53;0.53;;;;;;;;;;10374290;28;20226;-74
2023/04/05 01:53:21;;;;;;;6.73;0.80;;;;;;;;;;10361658;28;20801;-73
2023/04/05 01:58:22;;;;;;;2.23;0.80;;;;;;;;;;10350702;28;20231;-74
2023/04/05 02:03:24;;;;;;;0.70;0.70;;;;;;;;;;10353491;28;20733;-74
2023/04/05 02:08:25;;;;;;;0.70;0.70;;;;;;;;;;10371164;28;20236;-72
2023/04/05 02:13:26;;;;;;;1.07;0.70;;;;;;;;;;10360999;28;20993;-74
2023/04/05 02:18:30;;;;;;;0.38;0.35;;;;;;;;;;10339149;28;20223;-74
2023/04/05 02:23:32;;;;;;;1.73;1.08;;;;;;;;;;10356082;28;20223;-74
2023/04/05 02:28:33;;;;;;;0.60;0.60;;;;;;;;;;10375032;28;20629;-74
2023/04/05 02:33:34;;;;;;;1.07;0.60;;;;;;;;;;10346611;28;20318;-74
2023/04/05 02:38:37;;;;;;;0.57;0.57;;;;;;;;;;10360150;28;20269;-74
2023/04/05 02:43:38;;;;;;;0.60;0.60;;;;;;;;;;10377251;28;20223;-74
2023/04/05 02:48:40;;;;;;;0.63;0.63;;;;;;;;;;10373945;28;20792;-74
2023/04/05 02:53:43;;;;;;;0.57;0.57;;;;;;;;;;10339828;28;20231;-74
2023/04/05 02:58:48;;;;;;;0.60;0.60;;;;;;;;;;10349284;28;20283;-74
2023/04/05 03:03:52;;;;;;;2.17;0.63;;;;;;;;;;10353378;28;20227;-74
2023/04/05 03:08:54;;;;;;;0.57;0.57;;;;;;;;;;10355780;28;20802;-75
2023/04/05 03:13:58;;;;;;;0.73;0.60;;;;;;;;;;10373707;28;20232;-73
2023/04/05 03:19:12;;;;;;;0.83;0.50;;;;;;;;;;10354242;28;20227;-73
2023/04/05 03:24:18;;;;;;;1.00;0.47;;;;;;;;;;10370518;28;20389;-73
2023/04/05 03:29:19;;;;;;;2.73;0.83;;;;;;;;;;10370338;28;20228;-74
2023/04/05 03:34:21;;;;;;;7.13;0.57;;;;;;;;;;10368861;28;20215;-73
2023/04/05 03:39:23;;;;;;;0.57;0.57;;;;;;;;;;10354183;28;20223;-74
2023/04/05 03:44:25;;;;;;;0.80;0.80;;;;;;;;;;10361949;28;20273;-74
2023/04/05 03:49:26;;;;;;;0.40;0.40;;;;;;;;;;10363237;28;20222;-74
2023/04/05 03:54:27;;;;;;;0.53;0.53;;;;;;;;;;10371628;28;20212;-74
2023/04/05 03:59:31;;;;;;;1.77;0.90;;;;;;;;;;10344814;28;20246;-73
2023/04/05 04:04:34;;;;;;;0.53;0.53;;;;;;;;;;10354836;28;20223;-74
2023/04/05 04:09:35;;;;;;;1.33;0.53;;;;;;;;;;10365157;28;20724;-74
2023/04/05 04:14:42;;;;;;;0.67;0.67;;;;;;;;;;10346583;28;20735;-72
2023/04/05 04:20:09;;;;;;;2.63;1.17;;;;;;;;;;10365412;28;20798;-75
2023/04/05 04:25:30;;;;;;;0.73;0.73;;;;;;;;;;10345896;28;20306;-75
2023/04/05 04:30:52;;;;;;;0.77;0.60;;;;;;;;;;10351164;28;20225;-74
2023/04/05 04:36:16;;;;;;;0.70;0.70;;;;;;;;;;10355089;28;20278;-74
2023/04/05 04:41:49;;;;;;;0.80;0.73;;;;;;;;;;10347753;28;20235;-74
2023/04/05 04:47:16;;;;;;;0.90;0.70;;;;;;;;;;10339586;28;20734;-75
2023/04/05 04:52:52;;;;;;;0.80;0.70;;;;;;;;;;10352684;28;20223;-75
2023/04/05 04:57:54;;;;;;;0.80;0.80;;;;;;;;;;10328892;28;20227;-76
2023/04/05 05:02:55;;;;;;;0.90;0.90;;;;;;;;;;10355856;28;20587;-75
2023/04/05 05:07:56;;;;;;;1.53;1.23;;;;;;;;;;10338955;28;20219;-75
2023/04/05 05:12:57;;;;;;;1.63;1.13;;;;;;;;;;10359410;28;20242;-75
2023/04/05 05:17:58;;;;;;;2.93;1.07;;;;;;;;;;10347646;28;20589;-75
2023/04/05 05:23:00;;;;;;;1.83;1.23;;;;;;;;;;10339179;28;20219;-75
2023/04/05 05:28:01;;;;;;;1.20;1.10;;;;;;;;;;10358835;28;20301;-76
2023/04/05 05:33:03;;;;;;;2.27;1.20;;;;;;;;;;10324866;28;20411;-74
2023/04/05 05:38:04;;;;;;;2.53;1.30;;;;;;;;;;10345167;28;20229;-76
2023/04/05 05:43:05;;;;;;;3.50;1.60;;;;;;;;;;10364504;28;20219;-75
2023/04/05 05:48:06;;;;;;;2.33;1.50;;;;;;;;;;10338463;28;20875;-75
2023/04/05 05:53:07;;;;;;;1.87;1.40;;;;;;;;;;10358466;28;20288;-75
2023/04/05 05:58:08;;;;;;;3.00;1.30;;;;;;;;;;10365149;28;20318;-75
2023/04/05 06:03:10;;;;;;;4.57;1.60;;;;;;;;;;10351298;28;20698;-75
2023/04/05 06:08:11;;;;;;;4.57;2.30;;;;;;;;;;10371862;28;20219;-77
2023/04/05 06:13:12;;;;;;;5.43;1.37;;;;;;;;;;10332028;28;20227;-76
2023/04/05 06:18:14;;;;;;;2.97;1.50;;;;;;;;;;10345030;28;20250;-76
2023/04/05 06:23:15;;;;;;;3.33;1.00;;;;;;;;;;10343315;28;20227;-76
2023/04/05 06:28:16;;;;;;;1.33;1.27;;;;;;;;;;10349469;28;20227;-75
2023/04/05 06:33:17;;;;;;;5.07;1.30;;;;;;;;;;10339340;28;20900;-76
2023/04/05 06:38:18;;;;;;;3.00;1.65;;;;;;;;;;10336707;28;20554;-76
2023/04/05 06:43:19;;;;;;;1.60;1.52;;;;;;;;;;10324004;28;20322;-76
2023/04/05 06:48:20;;;;;;;2.33;2.20;;;;;;;;;;10355049;28;20611;-74
2023/04/05 06:53:21;;;;;;;4.47;2.72;;;;;;;;;;10321633;28;20234;-76
2023/04/05 06:58:22;;;;;;;2.60;2.38;;;;;;;;;;10336860;28;20332;-76
2023/04/05 07:03:24;;;;;;;2.45;1.90;;;;;;;;;;10337830;28;20713;-74
2023/04/05 07:08:26;;;;;;;1.67;1.38;;;;;;;;;;10360467;28;20594;-76
2023/04/05 07:13:27;;;;;;;3.17;1.88;;;;;;;;;;10355824;28;20236;-75
2023/04/05 07:18:28;;;;;;;1.77;0.80;;;;;;;;;;10370373;28;20247;-75
2023/04/05 07:23:30;;;;;;;2.05;1.27;;;;;;;;;;10370080;28;20781;-76
2023/04/05 07:28:34;;;;;;;4.10;1.10;;;;;;;;;;10355177;28;20258;-75
2023/04/05 07:33:35;;;;;;;1.45;1.13;;;;;;;;;;10365829;28;20763;-74
2023/04/05 07:38:36;;;;;;;0.82;0.82;;;;;;;;;;10359144;28;20243;-74
2023/04/05 07:43:37;;;;;;;1.17;1.15;;;;;;;;;;10346736;28;20237;-76
2023/04/05 07:48:38;;;;;;;1.63;0.73;;;;;;;;;;10364521;28;20224;-77
2023/04/05 07:53:40;;;;;;;0.85;0.70;;;;;;;;;;10366038;28;20800;-76
2023/04/05 07:58:41;;;;;;;0.60;0.52;;;;;;;;;;10347093;28;20223;-76
2023/04/05 08:03:42;;;;;;;0.57;0.35;;;;;;;;;;10343775;28;20231;-75
2023/04/05 08:08:44;;;;;;;0.60;0.30;;;;;;;;;;10359580;28;20231;-75
2023/04/05 08:13:45;;;;;;;0.50;0.50;;;;;;;;;;10367856;28;20303;-76
2023/04/05 08:18:47;;;;;;;0.30;0.30;;;;;;;;;;10357890;28;20313;-75
2023/04/05 08:23:49;;;;;;;0.30;0.30;;;;;;;;;;10352624;28;20651;-75
2023/04/05 08:28:50;;;;;;;0.85;0.20;;;;;;;;;;10373448;28;20325;-75
2023/04/05 08:33:51;;;;;;;2.10;0.30;;;;;;;;;;10353128;28;20231;-76
2023/04/05 08:38:52;;;;;;;0.98;0.30;;;;;;;;;;10351205;28;20263;-75
2023/04/05 08:43:57;;;;;;;2.65;0.40;;;;;;;;;;10351475;28;20223;-75
2023/04/05 08:49:00;;;;;;;0.50;0.50;;;;;;;;;;10361262;28;24109;-76
2023/04/05 08:54:03;;;;;;;0.50;0.45;;;;;;;;;;10366831;28;20230;-74
2023/04/05 08:59:06;;;;;;;0.88;0.45;;;;;;;;;;10370786;28;20219;-76
2023/04/05 09:04:09;;;;;;;0.50;0.50;;;;;;;;;;10362172;28;20220;-74
2023/04/05 09:09:10;;;;;;;0.50;0.50;;;;;;;;;;10359692;28;20316;-75
2023/04/05 09:14:12;;;;;;;0.47;0.40;;;;;;;;;;10361963;28;20219;-75
2023/04/05 09:19:13;;;;;;;1.20;0.47;;;;;;;;;;10334860;28;20768;-74
2023/04/05 09:24:14;;;;;;;1.98;0.40;;;;;;;;;;10327557;28;20231;-75
2023/04/05 09:29:29;;;;;;;0.65;0.40;;;;;;;;;;10360053;28;20219;-76
2023/04/05 09:34:37;;;;;;;0.28;0.28;;;;;;;;;;10362712;28;20821;-75
2023/04/05 09:39:38;;;;;;;1.67;0.40;;;;;;;;;;10374723;28;21628;-75
2023/04/05 09:44:53;;;;;;;0.30;0.30;;;;;;;;;;10352831;28;20219;-77
2023/04/05 09:49:54;;;;;;;0.38;0.30;;;;;;;;;;10329469;28;20258;-75
2023/04/05 09:54:56;;;;;;;0.10;0.10;;;;;;;;;;10346094;28;20254;-75
2023/04/05 09:59:57;;;;;;;0.30;0.30;;;;;;;;;;10357780;28;20319;-75
2023/04/05 10:05:05;;;;;;;0.20;0.20;;;;;;;;;;10348866;28;21002;-75
2023/04/05 10:10:07;;;;;;;1.40;0.40;;;;;;;;;;10349652;28;20224;-75
2023/04/05 10:15:09;;;;;;;0.85;0.57;;;;;;;;;;10347268;28;20990;-75
2023/04/05 10:20:14;;;;;;;1.85;0.40;;;;;;;;;;10362275;28;20227;-74
2023/04/05 10:25:34;;;;;;;1.67;0.43;;;;;;;;;;10348607;28;20227;-74
2023/04/05 10:30:36;;;;;;;2.40;0.50;;;;;;;;;;10369359;28;20310;-74
2023/04/05 10:35:49;;;;;;;2.30;0.50;;;;;;;;;;10340253;28;20728;-75
2023/04/05 10:40:53;;;;;;;0.65;0.60;;;;;;;;;;10365607;28;20234;-74
2023/04/05 10:45:54;;;;;;;1.05;0.50;;;;;;;;;;10361040;28;20224;-76
2023/04/05 10:50:56;;;;;;;0.60;0.60;;;;;;;;;;10340765;28;20782;-76
2023/04/05 10:55:57;;;;;;;1.13;0.52;;;;;;;;;;10344159;28;20238;-77
2023/04/05 11:00:59;;;;;;;1.85;0.50;;;;;;;;;;10340399;28;20227;-76
2023/04/05 11:06:22;;;;;;;2.70;0.60;;;;;;;;;;10365479;28;20251;-76
2023/04/05 11:11:25;;;;;;;0.30;0.30;;;;;;;;;;10348396;28;20293;-76
2023/04/05 11:16:38;;;;;;;1.10;0.40;;;;;;;;;;10339601;28;20286;-74
2023/04/05 11:21:39;;;;;;;0.55;0.55;;;;;;;;;;10326719;28;20304;-75
2023/04/05 11:26:40;;;;;;;0.70;0.70;;;;;;;;;;10338482;28;20242;-76
2023/04/05 11:32:05;;;;;;;0.80;0.50;;;;;;;;;;10355343;28;20236;-75
2023/04/05 11:37:06;;;;;;;0.40;0.40;;;;;;;;;;10359754;28;20609;-76
2023/04/05 11:42:11;;;;;;;0.50;0.50;;;;;;;;;;10363016;28;20294;-77
2023/04/05 11:47:12;;;;;;;0.40;0.40;;;;;;;;;;10328681;28;20381;-77
2023/04/05 11:52:15;;;;;;;1.15;0.60;;;;;;;;;;10364278;28;21333;-77
2023/04/05 11:57:20;;;;;;;1.42;0.50;;;;;;;;;;10328300;28;20661;-74
2023/04/05 12:02:21;;;;;;;0.30;0.30;;;;;;;;;;10359763;28;20224;-76
2023/04/05 12:07:24;;;;;;;0.40;0.40;;;;;;;;;;10350879;28;20222;-74
2023/04/05 12:12:25;;;;;;;0.50;0.50;;;;;;;;;;10341547;28;20227;-76
2023/04/05 12:17:43;;;;;;;0.47;0.47;;;;;;;;;;10357499;28;20926;-77
2023/04/05 12:22:47;;;;;;;1.23;0.47;;;;;;;;;;10359441;28;20858;-76
2023/04/05 12:27:48;;;;;;;0.40;0.40;;;;;;;;;;10346286;28;20227;-73
2023/04/05 12:32:53;;;;;;;0.50;0.50;;;;;;;;;;10345003;28;20261;-76
2023/04/05 12:37:57;;;;;;;0.63;0.63;;;;;;;;;;10324592;28;20293;-77
2023/04/05 12:43:05;;;;;;;0.40;0.40;;;;;;;;;;10343957;28;20273;-78
2023/04/05 12:48:09;;;;;;;0.60;0.60;;;;;;;;;;10325183;28;20235;-77
2023/04/05 12:53:19;;;;;;;0.68;0.68;;;;;;;;;;10329606;28;20227;-78
2023/04/05 12:58:32;;;;;;;1.15;0.88;;;;;;;;;;10342119;28;20709;-78
2023/04/05 13:03:33;;;;;;;0.73;0.40;;;;;;;;;;10336557;28;20219;-74
2023/04/05 13:08:34;;;;;;;0.50;0.50;;;;;;;;;;10332975;28;20338;-76
2023/04/05 13:13:35;;;;;;;0.45;0.45;;;;;;;;;;10380340;28;20223;-75
2023/04/05 13:18:36;;;;;;;2.00;0.40;;;;;;;;;;10340336;28;20224;-75
2023/04/05 13:23:38;;;;;;;0.40;0.40;;;;;;;;;;10360575;28;20263;-76
2023/04/05 13:28:39;;;;;;;0.43;0.43;;;;;;;;;;10342045;28;20228;-76
2023/04/05 13:33:40;;;;;;;1.35;0.60;;;;;;;;;;10350165;28;20219;-73
2023/04/05 13:38:41;;;;;;;0.73;0.40;;;;;;;;;;10346349;28;21639;-76
2023/04/05 13:43:42;;;;;;;0.50;0.50;;;;;;;;;;10340242;28;20797;-75
2023/04/05 13:48:43;;;;;;;1.00;0.40;;;;;;;;;;10331571;28;20234;-76
2023/04/05 13:53:44;;;;;;;1.58;0.50;;;;;;;;;;10362534;28;20518;-76
2023/04/05 13:58:45;;;;;;;0.47;0.35;;;;;;;;;;10356289;28;20230;-75
2023/04/05 14:03:46;;;;;;;6.03;0.60;;;;;;;;;;10361755;28;20258;-76
2023/04/05 14:08:47;;;;;;;12.38;1.50;;;;;;;;;;10361391;28;20867;-77
2023/04/05 14:13:50;;;;;;;0.80;0.32;;;;;;;;;;10337372;28;20746;-77
2023/04/05 14:18:51;;;;;;;1.60;0.32;;;;;;;;;;10341740;28;20289;-78
2023/04/05 14:23:55;;;;;;;1.13;0.55;;;;;;;;;;10347996;28;20313;-79
2023/04/05 14:28:56;;;;;;;0.40;0.40;;;;;;;;;;10358525;28;20219;-78
2023/04/05 14:33:58;;;;;;;0.43;0.43;;;;;;;;;;10361267;28;20227;-78
2023/04/05 14:38:59;;;;;;;0.30;0.30;;;;;;;;;;10348864;28;20690;-79
2023/04/05 14:44:00;;;;;;;0.80;0.43;;;;;;;;;;10362383;28;20218;-77
2023/04/05 14:49:01;;;;;;;0.30;0.30;;;;;;;;;;10355639;28;20227;-79
2023/04/05 14:54:03;;;;;;;0.98;0.40;;;;;;;;;;10335659;28;21170;-78
2023/04/05 14:59:04;;;;;;;0.50;0.50;;;;;;;;;;10351511;28;20220;-78
2023/04/05 15:04:05;;;;;;;0.80;0.60;;;;;;;;;;10371858;28;20222;-78
2023/04/05 15:09:06;;;;;;;0.40;0.40;;;;;;;;;;10358636;28;20231;-78
2023/04/05 15:14:07;;;;;;;0.40;0.40;;;;;;;;;;10363321;28;20867;-78
2023/04/05 15:19:08;;;;;;;0.65;0.50;;;;;;;;;;10360211;28;20271;-77
2023/04/05 15:24:10;;;;;;;0.35;0.35;;;;;;;;;;10336826;28;20224;-78
2023/04/05 15:29:11;;;;;;;0.60;0.60;;;;;;;;;;10358711;28;20280;-78
2023/04/05 15:34:12;;;;;;;1.30;0.60;;;;;;;;;;10337164;28;20637;-78
2023/04/05 15:39:13;;;;;;;3.70;3.50;;;;;;;;;;10365866;28;20268;-78
2023/04/05 15:44:15;;;;;;;1.40;1.40;;;;;;;;;;10348498;28;20273;-78
2023/04/05 15:49:24;;;;;;;2.15;0.70;;;;;;;;;;10460094;27;20583;-79
2023/04/05 15:54:26;;;;;;;3.75;3.50;;;;;;;;;;10453710;28;20276;-76
2023/04/05 15:59:27;;;;;;;2.05;0.82;;;;;;;;;;10453412;28;20232;-78
2023/04/05 16:04:28;;;;;;;1.40;0.90;;;;;;;;;;10450978;28;20209;-75
2023/04/05 16:09:30;;;;;;;0.80;0.80;;;;;;;;;;10439443;28;20750;-78
2023/04/05 16:14:31;;;;;;;0.63;0.63;;;;;;;;;;10450393;28;20248;-78
2023/04/05 16:19:32;;;;;;;0.70;0.60;;;;;;;;;;10419688;28;20216;-77
2023/04/05 16:24:35;;;;;;;0.45;0.40;;;;;;;;;;10444335;28;20214;-77
2023/04/05 16:29:36;;;;;;;0.50;0.50;;;;;;;;;;10457503;28;20230;-77
2023/04/05 16:34:37;;;;;;;2.97;0.80;;;;;;;;;;10439128;28;20290;-77
2023/04/05 16:39:38;;;;;;;0.40;0.40;;;;;;;;;;10447683;28;21504;-78
2023/04/05 16:44:39;;;;;;;0.40;0.40;;;;;;;;;;10446444;28;20218;-77
2023/04/05 16:49:40;;;;;;;0.52;0.50;;;;;;;;;;10464006;28;20230;-77
2023/04/05 16:54:41;;;;;;;0.70;0.40;;;;;;;;;;10441400;28;20299;-78
2023/04/05 16:59:42;;;;;;;0.68;0.50;;;;;;;;;;10420791;28;20227;-78
2023/04/05 17:04:44;;;;;;;0.82;0.82;;;;;;;;;;10436133;28;20314;-78
2023/04/05 17:09:45;;;;;;;1.02;1.02;;;;;;;;;;10410513;28;20214;-76
2023/04/05 17:14:46;;;;;;;1.77;0.70;;;;;;;;;;10433395;28;20221;-78
2023/04/05 17:19:47;;;;;;;1.05;0.60;;;;;;;;;;10435555;28;20305;-78
2023/04/05 17:24:48;;;;;;;1.50;0.50;;;;;;;;;;10443331;28;20210;-79
2023/04/05 17:29:49;;;;;;;0.55;0.55;;;;;;;;;;10462475;28;20222;-77
2023/04/05 17:34:51;;;;;;;0.60;0.60;;;;;;;;;;10461137;28;20229;-80
2023/04/05 17:39:52;;;;;;;3.95;1.20;;;;;;;;;;10461611;28;20217;-79
2023/04/05 17:44:53;;;;;;;1.83;1.25;;;;;;;;;;10469517;28;20221;-80
2023/04/05 17:49:54;;;;;;;4.53;2.80;;;;;;;;;;10464130;28;20222;-80
2023/04/05 17:54:58;;;;;;;3.90;2.45;;;;;;;;;;10442672;28;20229;-81
2023/04/05 18:00:03;;;;;;;1.58;0.80;;;;;;;;;;10459437;28;20219;-79
2023/04/05 18:05:06;;;;;;;0.80;0.50;;;;;;;;;;10436590;28;20218;-81
2023/04/05 18:10:07;;;;;;;3.10;0.80;;;;;;;;;;10425074;28;20659;-78
2023/04/05 18:15:09;;;;;;;1.30;0.90;;;;;;;;;;10430096;28;20312;-79
2023/04/05 18:20:10;;;;;;;1.58;1.13;;;;;;;;;;10424626;28;20218;-79
2023/04/05 18:25:12;;;;;;;1.45;1.38;;;;;;;;;;10424709;28;20213;-80
2023/04/05 18:30:13;;;;;;;1.60;1.10;;;;;;;;;;10417858;28;20740;-78
2023/04/05 18:35:14;;;;;;;1.73;1.63;;;;;;;;;;10422948;28;20990;-80
2023/04/05 18:40:15;;;;;;;1.85;1.45;;;;;;;;;;10415701;28;20237;-79
2023/04/05 18:45:16;;;;;;;5.15;2.22;;;;;;;;;;10400963;28;20213;-79
2023/04/05 18:50:18;;;;;;;3.38;2.10;;;;;;;;;;10426715;28;20216;-78
2023/04/05 18:55:20;;;;;;;2.35;1.60;;;;;;;;;;10421720;28;20762;-77
2023/04/05 19:00:21;;;;;;;1.85;1.75;;;;;;;;;;10420793;28;20213;-80
2023/04/05 19:05:22;;;;;;;3.85;2.72;;;;;;;;;;10425044;28;20298;-79
2023/04/05 19:10:23;;;;;;;3.60;2.13;;;;;;;;;;10412483;28;20313;-79
2023/04/05 19:15:24;;;;;;;7.15;2.22;;;;;;;;;;10421701;28;20913;-78
2023/04/05 19:20:25;;;;;;;2.20;2.00;;;;;;;;;;10414760;28;20253;-80
2023/04/05 19:25:26;;;;;;;2.47;1.60;;;;;;;;;;10396990;28;20779;-79
2023/04/05 19:30:27;;;;;;;2.58;2.40;;;;;;;;;;10422114;28;20215;-79
2023/04/05 19:35:29;;;;;;;3.30;2.92;;;;;;;;;;10436117;28;20243;-78
2023/04/05 19:40:30;;;;;;;2.42;2.15;;;;;;;;;;10414264;28;20226;-78
2023/04/05 19:45:32;;;;;;;3.45;2.72;;;;;;;;;;10402678;28;20305;-79
2023/04/05 19:50:41;;;;;;;2.25;2.00;;;;;;;;;;10429644;28;20222;-80
2023/04/05 19:55:41;;;;;;;1.98;1.88;;;;;;;;;;10419707;28;20313;-78
2023/04/05 20:00:51;;;;;;;1.10;1.10;;;;;;;;;;10441385;28;20230;-80
2023/04/05 20:05:57;;;;;;;1.15;0.90;;;;;;;;;;10422661;28;20237;-79
2023/04/05 20:10:58;;;;;;;0.90;0.90;;;;;;;;;;10422482;28;20218;-79
2023/04/05 20:15:59;;;;;;;2.15;1.25;;;;;;;;;;10422467;28;20261;-79
2023/04/05 20:21:00;;;;;;;0.63;0.63;;;;;;;;;;10424235;28;20297;-79
2023/04/05 20:26:01;;;;;;;0.90;0.90;;;;;;;;;;10433758;28;20234;-78
2023/04/05 20:31:02;;;;;;;0.80;0.80;;;;;;;;;;10441205;28;20218;-78
2023/04/05 20:36:10;;;;;;;1.38;0.75;;;;;;;;;;10439195;28;20219;-78
2023/04/05 20:41:11;;;;;;;0.70;0.70;;;;;;;;;;10444437;28;20219;-78
2023/04/05 20:46:13;;;;;;;2.75;0.98;;;;;;;;;;10444537;28;20217;-78
2023/04/05 20:51:15;;;;;;;3.20;0.88;;;;;;;;;;10431839;28;20246;-78
2023/04/05 20:56:16;;;;;;;3.58;1.10;;;;;;;;;;10429177;28;20992;-78
2023/04/05 21:01:17;;;;;;;1.42;1.33;;;;;;;;;;10437941;28;20222;-77
2023/04/05 21:06:18;;;;;;;1.33;1.30;;;;;;;;;;10448026;28;20260;-77
2023/04/05 21:11:20;;;;;;;2.92;1.65;;;;;;;;;;10443694;28;21311;-77
2023/04/05 21:16:21;;;;;;;1.67;1.15;;;;;;;;;;10442897;28;20214;-77
2023/04/05 21:21:22;;;;;;;0.98;0.98;;;;;;;;;;10425882;28;20301;-77
2023/04/05 21:26:23;;;;;;;1.48;1.48;;;;;;;;;;10428188;28;20218;-78
2023/04/05 21:31:24;;;;;;;1.92;0.98;;;;;;;;;;10436479;28;20222;-78
2023/04/05 21:36:26;;;;;;;1.30;1.02;;;;;;;;;;10432004;28;20635;-78
2023/04/05 21:41:27;;;;;;;1.38;1.27;;;;;;;;;;10431288;28;20211;-77
2023/04/05 21:46:27;;;;;;;2.70;1.00;;;;;;;;;;10419550;28;20226;-77
2023/04/05 21:51:29;;;;;;;0.82;0.82;;;;;;;;;;10420819;28;20301;-78
2023/04/05 21:56:30;;;;;;;2.42;1.00;;;;;;;;;;10434253;28;20222;-77
2023/04/05 22:01:31;;;;;;;1.30;1.25;;;;;;;;;;10433870;28;20210;-77
2023/04/05 22:06:32;;;;;;;1.30;1.17;;;;;;;;;;10434421;28;20233;-77
2023/04/05 22:11:33;;;;;;;0.80;0.75;;;;;;;;;;10437577;28;20243;-77
2023/04/05 22:16:34;;;;;;;0.80;0.80;;;;;;;;;;10440681;28;20221;-78
2023/04/05 22:21:35;;;;;;;1.20;1.10;;;;;;;;;;10443665;28;20214;-77
2023/04/05 22:26:37;;;;;;;1.90;1.10;;;;;;;;;;10436171;28;20233;-77
2023/04/05 22:31:38;;;;;;;1.50;1.08;;;;;;;;;;10430720;28;20222;-75
2023/04/05 22:36:41;;;;;;;0.80;0.80;;;;;;;;;;10438387;28;20214;-77
2023/04/05 22:41:42;;;;;;;1.45;0.57;;;;;;;;;;10432609;28;20242;-77
2023/04/05 22:46:43;;;;;;;1.42;0.80;;;;;;;;;;10439481;28;20324;-78
2023/04/05 22:51:44;;;;;;;0.80;0.80;;;;;;;;;;10434139;28;20371;-77
2023/04/05 22:56:45;;;;;;;2.13;0.70;;;;;;;;;;10419379;28;20249;-77
2023/04/05 23:01:46;;;;;;;1.00;1.00;;;;;;;;;;10418574;28;20688;-76
2023/04/05 23:06:47;;;;;;;0.60;0.60;;;;;;;;;;10421374;28;20230;-77
2023/04/05 23:11:48;;;;;;;0.60;0.60;;;;;;;;;;10439105;28;20218;-77
2023/04/05 23:16:49;;;;;;;0.90;0.90;;;;;;;;;;10436196;28;20222;-77
2023/04/05 23:21:50;;;;;;;1.80;0.75;;;;;;;;;;10440843;28;20222;-77
2023/04/05 23:26:51;;;;;;;0.95;0.95;;;;;;;;;;10440815;28;20249;-77
2023/04/05 23:31:52;;;;;;;0.98;0.98;;;;;;;;;;10429439;28;20253;-76
2023/04/05 23:36:53;;;;;;;0.82;0.82;;;;;;;;;;10428020;28;20268;-77
2023/04/05 23:41:55;;;;;;;1.40;1.30;;;;;;;;;;10434346;28;20642;-77
2023/04/05 23:46:56;;;;;;;1.08;1.00;;;;;;;;;;10419308;28;20300;-77
2023/04/05 23:51:57;;;;;;;1.95;1.15;;;;;;;;;;10441212;28;20252;-76
2023/04/05 23:56:58;;;;;;;1.13;1.10;;;;;;;;;;10436615;28;20796;-78
